Record high temperature 36.3°C Record low temperature -6.1°C Record high gust 90.1 km/h Record high average 70.9 km/h Record daily rain 58.2 mm Record low windchill -9.9°C Record high barometer 1039.9 hPa Record low barometer 985.2 hPa
Daily high pressure 1031.1 hPa Daily low pressure 1025.0 hPa Daily low windchill -1.6°C Daily high heat index 7.1°C Daily high gust speed 18.5 kmh NNW Daily high average speed 11.2 kmh NW
Stazione meteo Crema centro
ULTIMO RILEVAMENTO ALLE ORE: 17:10 GIORNO: 19 Gennaio 2020 prossimo aggiornamento ore: 17:15
Tempo presenteDusk/Dry/Poco nuvoloso Temperatura attuale 5.4°C (41.7°F), temperatura apparente 3.9°C, Apparent temp solar 3.9°C
Temperatura massima (da mezzanotte)7.1°C alle ore: 15:07 Temperatura minima (da mezzanotte)0.2°C alle ore: 09:19
Forza media vento (dieci minuti)3.3 kmh (1.8 kts) Direzione vento (dieci minuti)WNW (292°)
Temperatura vento 5.4°C Massima forza (ultima ora)8.0 kmh (4.3 kts) alle ore: 16:10
Massima forza (da mezzanotte)18.5 kmh (10.0 kts) alle ore: 00:03 Massimo vento 1 minuto (da mezzanotte)11.2 kmh (6.1 kts) alle ore: 13:35
Pioggia (ultima ora)0.0 mm Pioggia (da mezzanotte)0.3 mm (0.01 in.) at 00:13
Pioggia Questo mese 23.6 mm (0.93 in.) Pioggia Questo anno 23.6 mm (0.93 in.)
Massima pioggia per minuto (ultima ora)0.0 mm/min Massima pioggia per ora (ultime 6 ore)0.0 mm/ore
Pioggia di ieri 15.5 mm DewPoint 3.7°C (Wet Bulb :4.7°C )
Umidita 89 %, Humidex 4.3°C Pressione S.L.M.1031.0 hPa (QNH 1031.0 hPa
Variazione pressione +0.4 hPa (ultima ora) Tendenza (ultime 1 ore)Stazionaria
Variazione pressione (ultime 12 ore)+5.3 hPa Variazione pressione (ultime 6 ore)+1.8 hPa
Current Solar 0 W/mē
Maximum solar (da mezzanotte) 483 W/mē Minimum solar (da mezzanotte)0 W/mē
Current 03:50 hours of sunshine today, current sky: Dusk/Dry/Poco nuvoloso
Sunshine hours for the year: 54:24 hrs Sunshine hours for the month: 54:24 hrs
Current evapotranspiration rate 0.6 mm per day. Yesterday's reading 0.2

Questa pagina e` aggiornata con i dati della stazione meteo DAVIS VP Premere Reload o Refresh per facilitare la lettura dei dati aggiornati.

Status report of weather station: IK2CHZ - Crema meteo



Weather report/warning/Metars

Milano / Linate, Italy (LIML) 45-26N 009-17E 103M
Jan 19, 2020 - 10:50 AM EST / 2020.01.19 1550 UTC
Wind: from the S (180 degrees) at 3 MPH (3 KT):0
Visibility: greater than 7 mile(s):0
Sky conditions: mostly clear
Temperature: 42 F (6 C)
Dew Point: 37 F (3 C)
Relative Humidity: 81%
Pressure (altimeter): 30.42 in. Hg (1030 hPa)
ob: LIML 191550Z 18003KT 9999 FEW060 06/03 Q1030 NOSIG
cycle: 16
Bergamo / Orio Al Serio, Italy (LIME) 45-40N 009-42E 237M
Jan 19, 2020 - 10:50 AM EST / 2020.01.19 1550 UTC
Wind: from the SW (230 degrees) at 5 MPH (4 KT):0
Visibility: greater than 7 mile(s):0
Temperature: 42 F (6 C)
Dew Point: 37 F (3 C)
Relative Humidity: 81%
Pressure (altimeter): 30.42 in. Hg (1030 hPa)
ob: LIME 191550Z 23004KT CAVOK 06/03 Q1030 NOSIG
cycle: 16
Piacenza, Italy (LIMS) 44-55N 009-44E 138M
Jan 19, 2020 - 09:55 AM EST / 2020.01.19 1455 UTC
Wind: from the NW (320 degrees) at 1 MPH (1 KT):0
Visibility: greater than 7 mile(s):0
Sky conditions: mostly cloudy
Temperature: 41 F (5 C)
Dew Point: 41 F (5 C)
Relative Humidity: 100%
Pressure (altimeter): 30.36 in. Hg (1028 hPa)
ob: LIMS 191455Z 32001KT 9999 SCT050 BKN070 05/05 Q1028
cycle: 15